»·PEaware :: N172SP KSNA-KAVX

N172SP :: KSNA-KAVX

FLIGHT INFORMATION

Flight Status: Arrived
Operator: Privately registered:
United States
More flights under this callsign
Pilot: Napoleon Ma Jr J. (21170)
Aircraft: CESSNA 172 SKYHAWK
(C172)
More flights by this aircraft type
Origin: KSNA John Wayne-Orange Co
United States
Destination: KAVX Catalina
United States
More flights between these airports :: More routes between these airports
Route: SLI V21 SXC
File this flight plan on PilotEdge
Remarks: I-7 Rating
Altitude:
(Current/Filed)
4,000ft
Speed:
(Current/Filed)
115kts
Departed: 02-Dec-18 06:45 PM
Arrived: 02-Dec-18 07:21 PM
Distance/Time
Traveled:
32nm/0:36
Distance/Time
To Go:
Arrived

Flight Plot

Page will automatically refresh every two minutes.


Map Options




Map Legend


Flown Route
Filed Route
Departure Airport
Arrival Airport
Navaid (VOR, NDB)
Fix

Horizontal Profiles

Position Reports

Time Latitude Longitude Heading Altitude Ground
Speed
02-Dec-18 18:22 33.670670 -117.868621 265 60ft 0kts
02-Dec-18 18:23 33.670670 -117.868621 265 60ft 0kts
02-Dec-18 18:24 33.670670 -117.868621 265 60ft 0kts
02-Dec-18 18:25 33.670670 -117.868621 265 60ft 0kts
02-Dec-18 18:26 33.670670 -117.868620 265 60ft 0kts
02-Dec-18 18:27 33.670670 -117.868620 265 60ft 0kts
02-Dec-18 18:28 33.670670 -117.868620 265 60ft 0kts
02-Dec-18 18:29 33.670670 -117.868620 265 60ft 0kts
02-Dec-18 18:30 33.670670 -117.868620 265 60ft 0kts
02-Dec-18 18:31 33.670670 -117.868620 265 60ft 0kts
02-Dec-18 18:32 33.670670 -117.868620 265 60ft 0kts
02-Dec-18 18:33 33.670670 -117.868620 265 60ft 0kts
02-Dec-18 18:34 33.670670 -117.868620 265 60ft 0kts
02-Dec-18 18:35 33.670670 -117.868620 265 60ft 0kts
02-Dec-18 18:36 33.670670 -117.868620 265 60ft 0kts
02-Dec-18 18:37 33.670670 -117.868620 265 60ft 0kts
02-Dec-18 18:38 33.670670 -117.868620 265 60ft 0kts
02-Dec-18 18:39 33.670670 -117.868620 265 60ft 0kts
02-Dec-18 18:40 33.670670 -117.868620 265 60ft 0kts
02-Dec-18 18:41 33.670670 -117.868620 265 60ft 0kts
02-Dec-18 18:42 33.670874 -117.869040 352 60ft 7kts
02-Dec-18 18:43 33.672743 -117.867691 35 60ft 14kts
02-Dec-18 18:44 33.674619 -117.866760 27 60ft 12kts
02-Dec-18 18:45 33.678424 -117.864347 27 60ft 13kts
02-Dec-18 18:46 33.679943 -117.863569 293 60ft 0kts
02-Dec-18 18:47 33.679943 -117.863569 293 60ft 0kts
02-Dec-18 18:48 33.674807 -117.867576 208 211ft 69kts
02-Dec-18 18:49 33.658876 -117.882203 223 1181ft 74kts
02-Dec-18 18:50 33.643687 -117.899861 221 2019ft 89kts
02-Dec-18 18:51 33.623435 -117.922045 223 1989ft 99kts
02-Dec-18 18:52 33.604034 -117.944841 225 2011ft 97kts
02-Dec-18 18:53 33.585256 -117.968280 227 2007ft 97kts
02-Dec-18 18:54 33.566954 -117.992235 227 2016ft 99kts
02-Dec-18 18:55 33.548778 -118.013862 222 2910ft 87kts
02-Dec-18 18:56 33.531792 -118.032163 222 3783ft 81kts
02-Dec-18 18:57 33.513536 -118.054218 243 4029ft 94kts
02-Dec-18 18:58 33.503546 -118.082091 249 4003ft 88kts
02-Dec-18 18:59 33.495442 -118.110031 251 4003ft 92kts
02-Dec-18 19:00 33.486345 -118.138900 247 4014ft 92kts
02-Dec-18 19:01 33.474089 -118.166500 237 3960ft 93kts
02-Dec-18 19:02 33.462007 -118.192694 246 3936ft 87kts
02-Dec-18 19:03 33.452711 -118.219166 251 3977ft 87kts
02-Dec-18 19:04 33.444603 -118.242398 247 3969ft 91kts
02-Dec-18 19:05 33.431589 -118.274764 244 3942ft 95kts
02-Dec-18 19:06 33.421847 -118.297579 250 3967ft 91kts
02-Dec-18 19:07 33.410230 -118.330833 248 3952ft 93kts
02-Dec-18 19:08 33.401015 -118.354031 248 3975ft 91kts
02-Dec-18 19:09 33.387641 -118.386358 256 3955ft 92kts
02-Dec-18 19:10 33.391680 -118.410604 300 3943ft 92kts
02-Dec-18 19:11 33.416155 -118.411663 3 3968ft 101kts
02-Dec-18 19:12 33.443985 -118.409659 349 3969ft 98kts
02-Dec-18 19:13 33.471775 -118.403077 10 3808ft 104kts
02-Dec-18 19:14 33.497100 -118.411466 325 3435ft 98kts
02-Dec-18 19:15 33.521376 -118.422192 24 3366ft 103kts
02-Dec-18 19:16 33.514471 -118.395814 191 3385ft 105kts
02-Dec-18 19:17 33.486834 -118.405792 206 3123ft 105kts
02-Dec-18 19:18 33.458868 -118.410267 185 2406ft 101kts
02-Dec-18 19:19 33.433141 -118.411300 202 2206ft 79kts
02-Dec-18 19:20 33.420760 -118.429840 243 2145ft 70kts
02-Dec-18 19:21 33.411728 -118.449707 249 2274ft 74kts
02-Dec-18 19:22 33.394379 -118.448081 138 2121ft 75kts
02-Dec-18 19:23 33.398484 -118.426722 45 1902ft 75kts
02-Dec-18 19:24 33.405062 -118.415188 164 1543ft 0kts
02-Dec-18 19:25 33.404175 -118.414966 174 1544ft 0kts
02-Dec-18 19:26 33.403658 -118.414991 194 1545ft 3kts
02-Dec-18 19:27 33.403299 -118.415406 325 1548ft 0kts
02-Dec-18 19:28 33.403299 -118.415405 325 1548ft 0kts

Navigation Log

Ident Type
Flight plan parsing failed, navigation log unavailable